createdAt,value
2022-09-21T00:00:32.637Z,4.10
2022-09-21T00:02:59.727Z,3.78
2022-09-21T00:05:27.016Z,4.10
2022-09-21T00:07:54.142Z,4.40
2022-09-21T00:10:21.331Z,3.90
2022-09-21T00:12:49.069Z,3.92
2022-09-21T00:15:20.511Z,4.30
2022-09-21T00:17:47.845Z,4.55
2022-09-21T00:20:15.883Z,4.15
2022-09-21T00:22:43.057Z,4.55
2022-09-21T00:25:10.569Z,4.20
2022-09-21T00:27:37.634Z,4.72
2022-09-21T00:30:04.986Z,4.43
2022-09-21T00:32:32.330Z,5.22
2022-09-21T00:35:00.332Z,4.93
2022-09-21T00:37:28.286Z,4.93
2022-09-21T00:39:55.704Z,5.47
2022-09-21T00:42:24.573Z,5.00
2022-09-21T00:44:51.691Z,4.68
2022-09-21T00:47:37.682Z,4.88
2022-09-21T00:50:08.577Z,4.20
2022-09-21T00:52:38.462Z,3.95
2022-09-21T00:55:08.678Z,3.35
2022-09-21T00:57:36.827Z,3.05
2022-09-21T01:00:06.309Z,3.47
2022-09-21T01:02:34.611Z,3.33
2022-09-21T01:05:02.771Z,3.75
2022-09-21T01:07:32.256Z,3.13
2022-09-21T01:10:02.393Z,3.38
2022-09-21T01:12:35.269Z,3.88
2022-09-21T01:15:15.196Z,3.80
2022-09-21T01:17:49.597Z,3.40
2022-09-21T01:20:36.535Z,3.90
2022-09-21T01:23:09.786Z,3.65
2022-09-21T01:25:47.595Z,3.85
2022-09-21T01:28:30.245Z,3.30
2022-09-21T01:31:00.615Z,3.72
2022-09-21T01:33:30.254Z,3.60
2022-09-21T01:35:59.167Z,3.50
2022-09-21T01:38:46.496Z,4.30
2022-09-21T01:41:15.843Z,4.07
2022-09-21T01:43:45.081Z,3.50
2022-09-21T01:46:14.282Z,3.60
2022-09-21T01:48:44.793Z,3.50
2022-09-21T01:51:14.845Z,3.53
2022-09-21T01:54:00.767Z,3.42
2022-09-21T01:56:36.877Z,3.28
2022-09-21T01:59:04.127Z,3.35
2022-09-21T02:01:33.109Z,3.50
2022-09-21T02:04:02.708Z,3.38
2022-09-21T02:06:31.162Z,3.22
2022-09-21T02:08:58.633Z,2.90
2022-09-21T02:11:25.957Z,3.63
2022-09-21T02:13:54.618Z,3.30
2022-09-21T02:16:21.811Z,3.42
2022-09-21T02:19:19.691Z,3.15
2022-09-21T02:21:46.832Z,3.33
2022-09-21T02:24:14.041Z,3.58
2022-09-21T02:26:45.802Z,3.60
2022-09-21T02:29:43.035Z,3.25
2022-09-21T02:32:13.057Z,3.38
2022-09-21T02:34:49.274Z,3.50
2022-09-21T02:37:22.759Z,3.33
2022-09-21T02:39:50.235Z,3.35
2022-09-21T02:42:20.261Z,3.55
2022-09-21T02:44:49.805Z,3.15
2022-09-21T02:47:22.573Z,2.70
2022-09-21T02:52:18.849Z,2.97
2022-09-21T02:54:48.349Z,3.05
2022-09-21T02:57:16.820Z,2.90
2022-09-21T02:59:44.210Z,2.92
2022-09-21T03:02:12.472Z,2.83
2022-09-21T03:04:41.257Z,3.22
2022-09-21T03:07:08.996Z,3.67
2022-09-21T03:09:36.359Z,3.85
2022-09-21T03:12:03.550Z,3.70
2022-09-21T03:14:32.533Z,3.70
2022-09-21T03:17:00.583Z,3.38
2022-09-21T03:19:29.248Z,3.50
2022-09-21T03:21:56.881Z,2.78
2022-09-21T03:24:44.210Z,2.90
2022-09-21T03:27:11.495Z,3.03
2022-09-21T03:29:39.523Z,2.67
2022-09-21T03:32:06.668Z,2.70
2022-09-21T03:34:34.313Z,2.38
2022-09-21T03:37:02.728Z,2.53
2022-09-21T03:39:30.007Z,2.50
2022-09-21T03:41:57.091Z,2.72
2022-09-21T03:44:24.859Z,2.90
2022-09-21T03:46:52.082Z,3.10
2022-09-21T03:49:19.835Z,4.85
2022-09-21T03:51:46.986Z,4.30
2022-09-21T03:54:14.274Z,4.20
2022-09-21T03:56:41.349Z,4.35
2022-09-21T03:59:13.204Z,5.15
2022-09-21T04:04:08.295Z,4.65
2022-09-21T04:06:35.518Z,4.55
2022-09-21T04:09:03.542Z,5.13
2022-09-21T04:11:32.430Z,5.00
2022-09-21T04:13:59.852Z,5.50
2022-09-21T04:16:27.432Z,5.50
2022-09-21T04:18:54.587Z,5.18
2022-09-21T04:21:22.304Z,5.60
2022-09-21T04:23:49.895Z,5.05
2022-09-21T04:26:23.208Z,5.35
2022-09-21T04:28:50.663Z,4.50
2022-09-21T04:31:18.166Z,3.47
2022-09-21T04:33:45.672Z,4.25
2022-09-21T04:36:12.782Z,4.53
2022-09-21T04:38:40.563Z,4.10
2022-09-21T04:41:07.632Z,3.75
2022-09-21T04:43:34.774Z,4.05
2022-09-21T04:46:05.740Z,3.70
2022-09-21T04:48:32.870Z,3.58
2022-09-21T04:50:59.982Z,4.10
2022-09-21T04:53:27.049Z,4.60
2022-09-21T04:55:55.392Z,4.35
2022-09-21T04:58:25.360Z,4.47
2022-09-21T05:00:55.063Z,5.57
2022-09-21T05:03:22.554Z,4.72
2022-09-21T05:05:50.656Z,8.55
2022-09-21T05:08:18.233Z,7.47
2022-09-21T05:10:45.315Z,6.40
2022-09-21T05:13:14.713Z,5.82
2022-09-21T05:15:43.787Z,5.03
2022-09-21T05:18:10.871Z,4.55
2022-09-21T05:20:37.917Z,4.07
2022-09-21T05:23:05.008Z,4.63
2022-09-21T05:25:32.085Z,3.75
2022-09-21T05:27:59.324Z,4.65
2022-09-21T05:30:26.592Z,4.05
2022-09-21T05:33:00.305Z,4.22
2022-09-21T05:35:36.225Z,3.75
2022-09-21T05:38:25.174Z,4.10
2022-09-21T05:40:53.086Z,4.28
2022-09-21T05:43:20.382Z,4.22
2022-09-21T05:45:50.974Z,3.65
2022-09-21T05:48:37.093Z,3.80
2022-09-21T05:51:10.052Z,3.97
2022-09-21T05:53:45.453Z,3.08
2022-09-21T05:56:32.740Z,3.08
2022-09-21T05:59:09.027Z,2.70
2022-09-21T06:01:42.056Z,2.88
2022-09-21T06:04:12.779Z,2.97
2022-09-21T06:06:40.120Z,2.70
2022-09-21T06:09:07.358Z,2.42
2022-09-21T06:11:34.667Z,2.05
2022-09-21T06:14:03.005Z,2.35
2022-09-21T06:16:40.302Z,2.30
2022-09-21T06:19:07.734Z,2.40
2022-09-21T06:21:34.820Z,2.22
2022-09-21T06:24:01.993Z,2.00
2022-09-21T06:26:29.108Z,2.60
2022-09-21T06:28:56.205Z,2.38
2022-09-21T06:31:23.323Z,2.60
2022-09-21T06:33:50.389Z,2.45
2022-09-21T06:36:17.825Z,2.63
2022-09-21T06:38:44.910Z,2.15
2022-09-21T06:41:11.988Z,3.60
2022-09-21T06:43:39.070Z,2.58
2022-09-21T06:46:06.341Z,2.80
2022-09-21T06:48:34.117Z,2.20
2022-09-21T06:51:02.282Z,2.40
2022-09-21T06:53:30.611Z,2.35
2022-09-21T06:56:01.976Z,3.00
2022-09-21T06:58:29.322Z,2.65
2022-09-21T07:00:56.435Z,1.98
2022-09-21T07:03:23.574Z,1.67
2022-09-21T07:05:51.314Z,2.05
2022-09-21T07:11:05.547Z,1.30
2022-09-21T07:13:32.737Z,1.38
2022-09-21T07:15:59.897Z,1.58
2022-09-21T07:18:26.960Z,1.40
2022-09-21T07:20:54.237Z,1.42
2022-09-21T07:23:22.303Z,1.50
2022-09-21T07:25:52.311Z,1.17
2022-09-21T07:28:20.048Z,1.30
2022-09-21T07:30:47.164Z,1.50
2022-09-21T07:33:14.260Z,1.30
2022-09-21T07:35:41.389Z,1.25
2022-09-21T07:38:08.508Z,1.35
2022-09-21T07:40:36.169Z,1.55
2022-09-21T07:43:03.543Z,1.40
2022-09-21T07:45:31.428Z,1.60
2022-09-21T07:48:08.988Z,1.30
2022-09-21T07:50:36.555Z,1.50
2022-09-21T07:53:04.287Z,1.30
2022-09-21T07:55:32.265Z,1.30
2022-09-21T07:58:18.268Z,1.33
2022-09-21T08:00:45.419Z,1.00
2022-09-21T08:03:12.810Z,0.82
2022-09-21T08:05:39.955Z,1.60
2022-09-21T08:08:07.032Z,0.98
2022-09-21T08:10:35.426Z,1.23
2022-09-21T08:13:02.646Z,1.35
2022-09-21T08:15:49.937Z,1.30
2022-09-21T08:18:16.850Z,1.20
2022-09-21T08:20:44.018Z,1.02
2022-09-21T08:23:12.990Z,1.00
2022-09-21T08:25:40.085Z,0.82
2022-09-21T08:28:09.849Z,0.90
2022-09-21T08:30:37.474Z,1.15
2022-09-21T08:33:04.760Z,0.93
2022-09-21T08:35:31.835Z,0.95
2022-09-21T08:37:58.914Z,0.90
2022-09-21T08:40:26.020Z,0.93
2022-09-21T08:43:04.949Z,1.23
2022-09-21T08:45:38.339Z,1.25
2022-09-21T08:48:11.205Z,0.98
2022-09-21T08:50:41.868Z,1.20
2022-09-21T08:53:14.187Z,1.10
2022-09-21T08:55:41.297Z,1.38
2022-09-21T08:58:27.635Z,0.93
2022-09-21T09:01:15.010Z,1.77
2022-09-21T09:04:03.051Z,1.02
2022-09-21T09:06:41.289Z,0.90
2022-09-21T09:09:14.637Z,1.10
2022-09-21T09:11:56.047Z,0.70
2022-09-21T09:14:26.198Z,1.38
2022-09-21T09:16:57.393Z,0.80
2022-09-21T09:19:33.277Z,1.17
2022-09-21T09:22:03.519Z,0.90
2022-09-21T09:24:30.560Z,0.80
2022-09-21T09:27:00.991Z,0.80
2022-09-21T09:29:46.916Z,1.05
2022-09-21T09:32:15.483Z,1.00
2022-09-21T09:34:44.654Z,0.95
2022-09-21T09:37:13.242Z,0.90
2022-09-21T09:39:42.465Z,1.02
2022-09-21T09:42:28.078Z,0.60
2022-09-21T09:44:55.191Z,0.70
2022-09-21T09:47:45.263Z,0.90
2022-09-21T09:50:14.386Z,0.90
2022-09-21T09:52:41.522Z,1.25
2022-09-21T09:55:14.592Z,0.85
2022-09-21T09:57:41.996Z,0.80
2022-09-21T10:00:12.109Z,0.80
2022-09-21T10:02:49.369Z,0.55
2022-09-21T10:05:31.834Z,0.68
2022-09-21T10:07:59.002Z,0.70
2022-09-21T10:10:41.053Z,0.73
2022-09-21T10:13:14.216Z,0.82
2022-09-21T10:15:43.710Z,0.70
2022-09-21T10:18:21.806Z,0.90
2022-09-21T10:21:01.956Z,1.00
2022-09-21T10:23:30.289Z,1.65
2022-09-21T10:26:02.325Z,0.90
2022-09-21T10:28:29.861Z,0.98
2022-09-21T10:31:17.425Z,0.82
2022-09-21T10:33:48.263Z,0.90
2022-09-21T10:36:27.583Z,0.82
2022-09-21T10:38:55.074Z,0.77
2022-09-21T10:41:22.432Z,1.30
2022-09-21T10:43:50.868Z,1.15
2022-09-21T10:46:18.353Z,1.45
2022-09-21T10:48:46.419Z,1.67
2022-09-21T10:51:27.299Z,0.90
2022-09-21T10:53:54.731Z,0.90
2022-09-21T10:56:21.924Z,1.33
2022-09-21T10:59:24.610Z,2.25
2022-09-21T11:01:52.914Z,1.08
2022-09-21T11:04:23.409Z,2.10
2022-09-21T11:06:53.019Z,1.05
2022-09-21T11:09:23.132Z,0.90
2022-09-21T11:12:17.075Z,0.70
2022-09-21T11:14:50.500Z,0.85
2022-09-21T11:17:20.472Z,1.05
2022-09-21T11:19:57.527Z,1.50
2022-09-21T11:22:43.418Z,1.05
2022-09-21T11:25:31.092Z,1.30
2022-09-21T11:28:02.781Z,2.05
2022-09-21T11:30:38.387Z,1.88
2022-09-21T11:33:05.483Z,1.10
2022-09-21T11:35:35.446Z,0.93
2022-09-21T11:38:20.965Z,0.80
2022-09-21T11:41:06.896Z,1.08
2022-09-21T11:43:52.890Z,1.15
2022-09-21T11:46:20.004Z,1.30
2022-09-21T11:48:47.098Z,1.75
2022-09-21T11:51:24.019Z,1.10
2022-09-21T11:54:09.144Z,1.42
2022-09-21T11:56:36.214Z,1.20
2022-09-21T11:59:16.098Z,1.02
2022-09-21T12:01:58.675Z,1.00
2022-09-21T12:04:44.527Z,0.95
2022-09-21T12:07:24.680Z,1.02
2022-09-21T12:10:11.199Z,0.60
2022-09-21T12:12:44.776Z,1.02
2022-09-21T12:15:20.258Z,1.23
2022-09-21T12:17:56.953Z,0.88
2022-09-21T12:20:24.562Z,0.73
2022-09-21T12:22:53.510Z,0.77
2022-09-21T12:25:22.638Z,0.82
2022-09-21T12:27:51.621Z,0.77
2022-09-21T12:30:20.023Z,0.90
2022-09-21T12:32:50.220Z,0.90
2022-09-21T12:35:20.868Z,0.70
2022-09-21T12:37:48.415Z,0.90
2022-09-21T12:40:19.276Z,0.95
2022-09-21T12:42:52.579Z,0.85
2022-09-21T12:45:25.756Z,0.80
2022-09-21T12:47:58.177Z,0.90
2022-09-21T12:50:44.410Z,0.70
2022-09-21T12:53:17.138Z,1.02
2022-09-21T12:58:20.609Z,0.65
2022-09-21T13:00:53.840Z,0.82
2022-09-21T13:03:32.092Z,0.90
2022-09-21T13:06:06.517Z,0.60
2022-09-21T13:08:36.777Z,0.70
2022-09-21T13:11:05.813Z,0.85
2022-09-21T13:13:37.780Z,0.60
2022-09-21T13:16:07.758Z,0.67
2022-09-21T13:18:39.815Z,0.63
2022-09-21T13:21:30.425Z,0.63
2022-09-21T13:23:58.902Z,1.10
2022-09-21T13:26:42.343Z,0.70
2022-09-21T13:29:21.696Z,0.82
2022-09-21T13:31:59.463Z,0.70
2022-09-21T13:34:36.732Z,0.63
2022-09-21T13:37:17.412Z,1.50
2022-09-21T13:39:45.619Z,0.60
2022-09-21T13:42:31.017Z,0.80
2022-09-21T13:45:18.715Z,0.70
2022-09-21T13:48:00.157Z,0.70
2022-09-21T13:50:31.424Z,0.70
2022-09-21T13:53:01.014Z,0.75
2022-09-21T13:55:28.043Z,0.47
2022-09-21T13:57:56.126Z,0.80
2022-09-21T14:00:23.170Z,0.63
2022-09-21T14:02:54.725Z,0.70
2022-09-21T14:05:33.059Z,0.90
2022-09-21T14:08:06.013Z,0.95
2022-09-21T14:10:36.095Z,1.08
2022-09-21T14:13:04.140Z,0.73
2022-09-21T14:15:32.691Z,0.73
2022-09-21T14:18:16.286Z,0.75
2022-09-21T14:21:01.902Z,0.73
2022-09-21T14:23:29.695Z,0.70
2022-09-21T14:25:57.914Z,0.68
2022-09-21T14:28:42.702Z,0.80
2022-09-21T14:31:16.039Z,1.30
2022-09-21T14:33:48.208Z,0.70
2022-09-21T14:36:18.044Z,1.02
2022-09-21T14:38:51.858Z,0.82
2022-09-21T14:41:22.794Z,1.92
2022-09-21T14:43:54.496Z,1.50
2022-09-21T14:46:30.246Z,1.10
2022-09-21T14:49:06.809Z,0.80
2022-09-21T14:51:43.006Z,1.10
2022-09-21T14:54:19.218Z,1.20
2022-09-21T14:56:51.664Z,0.93
2022-09-21T14:59:34.858Z,1.30
2022-09-21T15:02:03.560Z,1.05
2022-09-21T15:04:45.847Z,0.75
2022-09-21T15:07:51.113Z,1.30
2022-09-21T15:10:54.537Z,0.75
2022-09-21T15:13:22.581Z,1.00
2022-09-21T15:16:08.720Z,0.93
2022-09-21T15:18:40.836Z,0.73
2022-09-21T15:21:38.128Z,0.93
2022-09-21T15:24:17.251Z,0.80
2022-09-21T15:26:44.430Z,0.80
2022-09-21T15:29:18.980Z,0.80
2022-09-21T15:31:46.355Z,0.80
2022-09-21T15:34:15.063Z,1.50
2022-09-21T15:36:43.107Z,1.10
2022-09-21T15:39:23.953Z,1.00
2022-09-21T15:41:55.313Z,0.98
2022-09-21T15:44:23.427Z,0.98
2022-09-21T15:46:52.152Z,0.80
2022-09-21T15:49:24.927Z,0.82
2022-09-21T15:54:35.203Z,2.88
2022-09-21T15:57:08.466Z,1.33
2022-09-21T15:59:35.766Z,1.38
2022-09-21T16:02:11.766Z,0.88
2022-09-21T16:04:48.243Z,1.08
2022-09-21T16:07:27.566Z,1.42
2022-09-21T16:09:54.934Z,1.00
2022-09-21T16:12:40.617Z,1.30
2022-09-21T16:15:07.934Z,1.33
2022-09-21T16:17:38.602Z,1.35
2022-09-21T16:20:10.488Z,1.08
2022-09-21T16:22:42.601Z,1.00
2022-09-21T16:25:24.899Z,1.20
2022-09-21T16:27:54.214Z,1.35
2022-09-21T16:30:53.581Z,1.02
2022-09-21T16:33:40.876Z,1.15
2022-09-21T16:36:34.079Z,1.30
2022-09-21T16:41:34.393Z,1.05
2022-09-21T16:44:02.754Z,1.23
2022-09-21T16:46:31.778Z,1.20
2022-09-21T16:49:00.631Z,1.33
2022-09-21T16:51:28.670Z,1.10
2022-09-21T16:53:59.969Z,1.67
2022-09-21T16:56:27.529Z,1.73
2022-09-21T16:58:54.791Z,2.45
2022-09-21T17:01:21.983Z,2.25
2022-09-21T17:03:49.148Z,2.50
2022-09-21T17:06:20.542Z,2.70
2022-09-21T17:08:48.306Z,2.70
2022-09-21T17:11:21.952Z,2.40
2022-09-21T17:13:49.900Z,2.08
2022-09-21T17:16:18.306Z,2.17
2022-09-21T17:18:49.433Z,20.33
2022-09-21T17:21:17.309Z,6.20
2022-09-21T17:23:45.312Z,5.00
2022-09-21T17:26:21.102Z,6.38
2022-09-21T17:28:48.210Z,6.07
2022-09-21T17:31:23.037Z,3.88
2022-09-21T17:33:51.289Z,3.35
2022-09-21T17:36:18.938Z,4.70
2022-09-21T17:38:46.158Z,4.50
2022-09-21T17:41:26.409Z,4.32
2022-09-21T17:44:11.702Z,5.32
2022-09-21T17:46:54.221Z,7.40
2022-09-21T17:49:21.418Z,4.43
2022-09-21T17:52:07.522Z,3.60
2022-09-21T17:54:36.165Z,3.42
2022-09-21T17:57:09.130Z,2.92
2022-09-21T17:59:37.599Z,2.80
2022-09-21T18:02:15.282Z,2.97
2022-09-21T18:04:42.477Z,2.80
2022-09-21T18:07:10.289Z,2.70
2022-09-21T18:09:37.590Z,2.85
2022-09-21T18:12:33.949Z,2.55
2022-09-21T18:15:09.222Z,2.70
2022-09-21T18:17:54.796Z,2.65
2022-09-21T18:20:24.871Z,2.80
2022-09-21T18:22:55.105Z,2.00
2022-09-21T18:25:26.713Z,2.00
2022-09-21T18:27:55.886Z,2.15
2022-09-21T18:30:23.261Z,1.73
2022-09-21T18:32:50.348Z,2.80
2022-09-21T18:35:49.974Z,3.03
2022-09-21T18:38:19.840Z,3.03
2022-09-21T18:41:05.684Z,5.60
2022-09-21T18:43:41.906Z,7.55
2022-09-21T18:46:18.772Z,8.23
2022-09-21T18:48:56.754Z,6.70
2022-09-21T18:51:23.787Z,5.88
2022-09-21T18:53:55.794Z,4.88
2022-09-21T18:56:24.140Z,4.90
2022-09-21T18:58:51.651Z,3.80
2022-09-21T19:01:21.849Z,3.95
2022-09-21T19:03:49.809Z,3.50
2022-09-21T19:06:39.725Z,3.30
2022-09-21T19:09:16.173Z,3.00
2022-09-21T19:12:02.270Z,3.28
2022-09-21T19:14:32.100Z,3.35
2022-09-21T19:17:07.314Z,3.65
2022-09-21T19:19:37.589Z,4.18
2022-09-21T19:22:13.233Z,5.78
2022-09-21T19:24:47.490Z,3.97
2022-09-21T19:27:18.807Z,4.85
2022-09-21T19:29:54.516Z,3.80
2022-09-21T19:32:35.435Z,3.72
2022-09-21T19:35:12.887Z,3.20
2022-09-21T19:37:40.039Z,3.25
2022-09-21T19:40:07.832Z,4.50
2022-09-21T19:42:52.269Z,5.18
2022-09-21T19:45:26.790Z,4.82
2022-09-21T19:47:54.986Z,3.42
2022-09-21T19:50:30.732Z,2.97
2022-09-21T19:53:18.069Z,2.50
2022-09-21T19:56:04.646Z,2.50
2022-09-21T19:58:50.654Z,2.55
2022-09-21T20:01:19.119Z,5.40
2022-09-21T20:03:47.010Z,8.30
2022-09-21T20:06:19.338Z,10.27
2022-09-21T20:08:55.393Z,9.73
2022-09-21T20:11:29.789Z,11.82
2022-09-21T20:14:18.774Z,10.93
2022-09-21T20:16:48.879Z,8.82
2022-09-21T20:19:26.743Z,6.18
2022-09-21T20:21:59.797Z,5.07
2022-09-21T20:24:29.674Z,5.10
2022-09-21T20:26:57.245Z,4.53
2022-09-21T20:29:25.101Z,3.92
2022-09-21T20:31:53.219Z,3.53
2022-09-21T20:34:20.797Z,3.40
2022-09-21T20:36:48.034Z,2.80
2022-09-21T20:39:15.170Z,2.55
2022-09-21T20:41:42.365Z,2.50
2022-09-21T20:44:13.634Z,2.30
2022-09-21T20:46:40.909Z,2.47
2022-09-21T20:49:08.634Z,2.50
2022-09-21T20:51:36.050Z,2.47
2022-09-21T20:54:03.319Z,2.53
2022-09-21T20:56:30.771Z,2.45
2022-09-21T20:58:58.205Z,2.30
2022-09-21T21:01:25.927Z,2.53
2022-09-21T21:03:55.620Z,2.47
2022-09-21T21:06:23.259Z,2.90
2022-09-21T21:08:50.658Z,2.83
2022-09-21T21:11:17.773Z,3.22
2022-09-21T21:13:44.840Z,2.90
2022-09-21T21:16:12.620Z,3.58
2022-09-21T21:18:43.025Z,3.08
2022-09-21T21:21:10.151Z,3.15
2022-09-21T21:24:03.593Z,3.00
2022-09-21T21:26:57.253Z,2.55
2022-09-21T21:29:18.583Z,2.97
2022-09-21T21:31:47.858Z,2.50
2022-09-21T21:34:15.718Z,2.30
2022-09-21T21:36:43.402Z,3.03
2022-09-21T21:39:11.162Z,3.05
2022-09-21T21:41:38.374Z,2.92
2022-09-21T21:44:05.454Z,2.85
2022-09-21T21:46:32.607Z,2.95
2022-09-21T21:49:00.347Z,3.38
2022-09-21T21:51:27.429Z,2.80
2022-09-21T21:53:54.561Z,2.78
2022-09-21T21:56:23.103Z,3.10
2022-09-21T21:58:56.719Z,2.92
2022-09-21T22:01:25.349Z,3.05
2022-09-21T22:03:53.366Z,2.95
2022-09-21T22:06:20.499Z,3.05
2022-09-21T22:08:47.679Z,3.65
2022-09-21T22:11:15.739Z,3.35
2022-09-21T22:13:43.126Z,3.30
2022-09-21T22:16:11.990Z,2.28
2022-09-21T22:18:39.777Z,2.60
2022-09-21T22:21:08.039Z,2.80
2022-09-21T22:23:35.321Z,2.78
2022-09-21T22:26:07.246Z,2.75
2022-09-21T22:28:34.766Z,3.13
2022-09-21T22:31:02.726Z,2.50
2022-09-21T22:33:36.110Z,2.90
2022-09-21T22:36:04.718Z,2.97
2022-09-21T22:38:32.916Z,3.13
2022-09-21T22:41:04.216Z,2.83
2022-09-21T22:43:31.594Z,2.97
2022-09-21T22:45:58.812Z,2.60
2022-09-21T22:48:26.343Z,2.70
2022-09-21T22:50:53.844Z,3.13
2022-09-21T22:53:21.303Z,2.83
2022-09-21T22:55:48.650Z,3.00
2022-09-21T22:58:16.029Z,3.40
2022-09-21T23:00:43.115Z,3.33
2022-09-21T23:03:11.282Z,2.85
2022-09-21T23:05:38.348Z,3.10
2022-09-21T23:08:05.766Z,2.97
2022-09-21T23:10:32.891Z,3.20
2022-09-21T23:12:59.972Z,3.25
2022-09-21T23:15:27.117Z,3.00
2022-09-21T23:17:54.196Z,2.80
2022-09-21T23:20:21.258Z,2.85
2022-09-21T23:22:48.390Z,3.33
2022-09-21T23:25:15.674Z,3.08
2022-09-21T23:27:42.704Z,3.35
2022-09-21T23:30:10.130Z,3.30
2022-09-21T23:32:37.219Z,2.80
2022-09-21T23:35:04.374Z,2.95
2022-09-21T23:37:31.466Z,3.00
2022-09-21T23:39:58.755Z,3.15
2022-09-21T23:42:25.883Z,2.90
2022-09-21T23:44:52.960Z,2.88
2022-09-21T23:47:20.242Z,3.10
2022-09-21T23:49:47.351Z,2.97
2022-09-21T23:52:14.410Z,2.80
2022-09-21T23:54:41.481Z,2.83
2022-09-21T23:57:08.575Z,2.83
2022-09-21T23:59:35.701Z,2.60
